CheckWX is a tool to help pilots better visualize weather data.  It is not intended as a substitute for an official pre-flight weather briefing.

05:22:10 UTC

UTST TAF
Termez Airport
Termez, Uzbekistan
TAF UTST 192300Z 2000/2024 27019G29KT 5000 -SHRA -DS BKN005 OVC040CB TEMPO 2000/2011 24033G43KT 1000 SHRASN BKN002 OVC033CB

Feb-20@
00:00 UTC

Feb-20 @ 00:00 UTC

Feb-21@
00:00 UTC

Feb-21 @ 00:00 UTC

TAF UTST 192300Z 2000/2024 27019G29KT 5000 -SHRA -DS BKN005 OVC040CB
Wind
  • 270° at 19 KTS
  • {Gusting to 29 KTS
Visibility
5,005 meters
Conditions
Light Rain, Light Duststorm
Cloud Levels
  • Broken at 500' AGL
  • Overcast at 4,000' AGL

Feb-20@
00:00 UTC

Feb-20 @ 00:00 UTC

Feb-20@
11:00 UTC

Feb-20 @ 11:00 UTC

TEMPO 2000/2011 24033G43KT 1000 SHRASN BKN002 OVC033CB

Temporary

TemporaryChanges expected for less than half the time period

Wind
  • 240° at 33 KTS
  • {Gusting to 43 KTS
Visibility
998 meters
Conditions
Rain, Snow
Cloud Levels
  • Broken at 200' AGL
  • Overcast at 3,300' AGL